sensor_id;sensor_type;location;lat;lon;timestamp;pressure;altitude;pressure_sealevel;temperature;humidity
55759;BME280;41678;52.126;20.664;2023-06-22T00:00:56;100381.88;;;20.21;73.80
55759;BME280;41678;52.126;20.664;2023-06-22T00:06:16;100373.44;;;20.11;73.91
55759;BME280;41678;52.126;20.664;2023-06-22T00:11:38;100363.16;;;20.03;74.34
55759;BME280;41678;52.126;20.664;2023-06-22T00:17:03;100361.66;;;19.98;73.78
55759;BME280;41678;52.126;20.664;2023-06-22T00:22:23;100361.00;;;19.92;73.66
55759;BME280;41678;52.126;20.664;2023-06-22T00:27:48;100371.53;;;19.95;73.63
55759;BME280;41678;52.126;20.664;2023-06-22T00:33:08;100367.22;;;19.93;73.60
55759;BME280;41678;52.126;20.664;2023-06-22T00:38:28;100366.38;;;19.92;73.77
55759;BME280;41678;52.126;20.664;2023-06-22T00:43:48;100355.06;;;19.86;73.65
55759;BME280;41678;52.126;20.664;2023-06-22T00:49:08;100362.31;;;19.84;73.82
55759;BME280;41678;52.126;20.664;2023-06-22T00:54:28;100342.94;;;19.78;73.29
55759;BME280;41678;52.126;20.664;2023-06-22T00:59:49;100343.81;;;19.79;73.50
55759;BME280;41678;52.126;20.664;2023-06-22T01:05:09;100330.53;;;19.77;73.97
55759;BME280;41678;52.126;20.664;2023-06-22T01:10:50;100336.75;;;19.78;73.82
55759;BME280;41678;52.126;20.664;2023-06-22T01:16:18;100331.25;;;19.81;73.89
55759;BME280;41678;52.126;20.664;2023-06-22T01:21:40;100332.56;;;19.72;74.14
55759;BME280;41678;52.126;20.664;2023-06-22T01:27:14;100331.94;;;19.67;74.37
55759;BME280;41678;52.126;20.664;2023-06-22T01:32:41;100348.81;;;19.67;74.26
55759;BME280;41678;52.126;20.664;2023-06-22T01:38:01;100354.53;;;19.60;74.35
55759;BME280;41678;52.126;20.664;2023-06-22T01:43:22;100353.75;;;19.58;74.46
55759;BME280;41678;52.126;20.664;2023-06-22T01:48:43;100365.50;;;19.73;74.70
55759;BME280;41678;52.126;20.664;2023-06-22T01:54:03;100372.59;;;19.74;74.90
55759;BME280;41678;52.126;20.664;2023-06-22T01:59:32;100380.50;;;19.75;75.31
55759;BME280;41678;52.126;20.664;2023-06-22T02:04:58;100386.56;;;19.79;75.91
55759;BME280;41678;52.126;20.664;2023-06-22T02:10:20;100390.75;;;19.85;76.37
55759;BME280;41678;52.126;20.664;2023-06-22T02:15:40;100398.44;;;19.91;76.74
55759;BME280;41678;52.126;20.664;2023-06-22T02:21:00;100393.19;;;19.89;76.84
55759;BME280;41678;52.126;20.664;2023-06-22T02:26:20;100403.44;;;19.99;77.51
55759;BME280;41678;52.126;20.664;2023-06-22T02:31:39;100425.88;;;19.96;77.23
55759;BME280;41678;52.126;20.664;2023-06-22T02:37:00;100430.97;;;20.01;77.67
55759;BME280;41678;52.126;20.664;2023-06-22T02:42:20;100438.13;;;20.00;77.61
55759;BME280;41678;52.126;20.664;2023-06-22T02:47:42;100444.03;;;20.07;77.99
55759;BME280;41678;52.126;20.664;2023-06-22T02:53:02;100453.78;;;20.08;78.22
55759;BME280;41678;52.126;20.664;2023-06-22T02:58:26;100456.47;;;20.08;78.25
55759;BME280;41678;52.126;20.664;2023-06-22T03:03:46;100458.19;;;20.09;78.28
55759;BME280;41678;52.126;20.664;2023-06-22T03:09:06;100464.31;;;20.11;78.33
55759;BME280;41678;52.126;20.664;2023-06-22T03:14:27;100456.47;;;20.08;78.30
55759;BME280;41678;52.126;20.664;2023-06-22T03:19:47;100458.03;;;20.12;78.50
55759;BME280;41678;52.126;20.664;2023-06-22T03:25:08;100465.09;;;20.13;78.70
55759;BME280;41678;52.126;20.664;2023-06-22T03:30:34;100472.75;;;20.21;79.15
55759;BME280;41678;52.126;20.664;2023-06-22T03:35:54;100481.94;;;20.15;78.82
55759;BME280;41678;52.126;20.664;2023-06-22T03:41:14;100488.00;;;20.19;79.03
55759;BME280;41678;52.126;20.664;2023-06-22T03:46:34;100493.72;;;20.11;78.71
55759;BME280;41678;52.126;20.664;2023-06-22T03:51:54;100499.84;;;20.13;79.00
55759;BME280;41678;52.126;20.664;2023-06-22T03:57:13;100509.47;;;20.17;79.14
55759;BME280;41678;52.126;20.664;2023-06-22T04:02:33;100506.66;;;20.20;79.76
55759;BME280;41678;52.126;20.664;2023-06-22T04:07:52;100503.88;;;20.22;79.46
55759;BME280;41678;52.126;20.664;2023-06-22T04:13:12;100523.16;;;20.29;79.85
55759;BME280;41678;52.126;20.664;2023-06-22T04:18:31;100519.28;;;20.36;80.55
55759;BME280;41678;52.126;20.664;2023-06-22T04:23:51;100529.97;;;20.36;80.41
55759;BME280;41678;52.126;20.664;2023-06-22T04:29:11;100518.34;;;20.37;80.50
55759;BME280;41678;52.126;20.664;2023-06-22T04:34:31;100520.84;;;20.40;80.46
55759;BME280;41678;52.126;20.664;2023-06-22T04:39:51;100518.00;;;20.43;80.89
55759;BME280;41678;52.126;20.664;2023-06-22T04:45:11;100512.88;;;20.38;80.35
55759;BME280;41678;52.126;20.664;2023-06-22T04:50:32;100515.28;;;20.45;81.07
55759;BME280;41678;52.126;20.664;2023-06-22T04:55:52;100511.59;;;20.47;80.82
55759;BME280;41678;52.126;20.664;2023-06-22T05:01:12;100517.41;;;20.56;81.14
55759;BME280;41678;52.126;20.664;2023-06-22T05:06:32;100521.81;;;20.57;81.04
55759;BME280;41678;52.126;20.664;2023-06-22T05:11:52;100528.06;;;20.57;80.95
55759;BME280;41678;52.126;20.664;2023-06-22T05:17:12;100530.34;;;20.65;81.26
55759;BME280;41678;52.126;20.664;2023-06-22T05:22:33;100531.97;;;20.67;81.44
55759;BME280;41678;52.126;20.664;2023-06-22T05:27:53;100533.47;;;20.73;81.35
55759;BME280;41678;52.126;20.664;2023-06-22T05:33:12;100520.63;;;20.82;81.95
55759;BME280;41678;52.126;20.664;2023-06-22T05:38:32;100541.41;;;20.94;82.04
55759;BME280;41678;52.126;20.664;2023-06-22T05:43:52;100545.66;;;20.98;82.00
55759;BME280;41678;52.126;20.664;2023-06-22T05:49:12;100546.28;;;21.03;81.73
55759;BME280;41678;52.126;20.664;2023-06-22T05:54:32;100549.44;;;21.12;81.50
55759;BME280;41678;52.126;20.664;2023-06-22T05:59:52;100559.19;;;21.30;82.66
55759;BME280;41678;52.126;20.664;2023-06-22T06:05:13;100558.78;;;21.38;82.04
55759;BME280;41678;52.126;20.664;2023-06-22T06:10:35;100569.88;;;21.48;82.13
55759;BME280;41678;52.126;20.664;2023-06-22T06:15:56;100568.28;;;21.61;82.15
55759;BME280;41678;52.126;20.664;2023-06-22T06:21:16;100572.47;;;21.67;81.83
55759;BME280;41678;52.126;20.664;2023-06-22T06:26:36;100563.25;;;21.73;81.91
55759;BME280;41678;52.126;20.664;2023-06-22T06:31:55;100565.56;;;21.79;81.42
55759;BME280;41678;52.126;20.664;2023-06-22T06:37:17;100569.06;;;21.97;81.69
55759;BME280;41678;52.126;20.664;2023-06-22T06:42:38;100573.84;;;22.08;81.38
55759;BME280;41678;52.126;20.664;2023-06-22T06:48:01;100562.88;;;22.13;81.12
55759;BME280;41678;52.126;20.664;2023-06-22T06:53:20;100559.38;;;22.27;81.08
55759;BME280;41678;52.126;20.664;2023-06-22T06:58:41;100550.25;;;22.31;80.96
55759;BME280;41678;52.126;20.664;2023-06-22T07:04:01;100554.59;;;22.49;80.25
55759;BME280;41678;52.126;20.664;2023-06-22T07:09:21;100562.69;;;22.64;80.10
55759;BME280;41678;52.126;20.664;2023-06-22T07:14:41;100563.72;;;22.77;79.95
55759;BME280;41678;52.126;20.664;2023-06-22T07:20:01;100572.78;;;22.91;79.41
55759;BME280;41678;52.126;20.664;2023-06-22T07:25:21;100573.00;;;23.02;79.17
55759;BME280;41678;52.126;20.664;2023-06-22T07:30:41;100572.38;;;23.13;78.66
55759;BME280;41678;52.126;20.664;2023-06-22T07:36:00;100579.53;;;23.29;78.40
55759;BME280;41678;52.126;20.664;2023-06-22T07:41:20;100580.59;;;23.41;77.43
55759;BME280;41678;52.126;20.664;2023-06-22T07:46:39;100587.03;;;23.53;76.98
55759;BME280;41678;52.126;20.664;2023-06-22T07:51:59;100594.44;;;23.63;76.93
55759;BME280;41678;52.126;20.664;2023-06-22T07:57:20;100581.75;;;23.80;76.75
55759;BME280;41678;52.126;20.664;2023-06-22T08:02:40;100584.84;;;23.88;75.60
55759;BME280;41678;52.126;20.664;2023-06-22T08:08:00;100585.88;;;24.00;74.56
55759;BME280;41678;52.126;20.664;2023-06-22T08:13:20;100581.00;;;24.07;73.56
55759;BME280;41678;52.126;20.664;2023-06-22T08:18:40;100580.44;;;24.16;73.23
55759;BME280;41678;52.126;20.664;2023-06-22T08:23:59;100587.13;;;24.24;72.26
55759;BME280;41678;52.126;20.664;2023-06-22T08:29:19;100584.06;;;24.30;72.04
55759;BME280;41678;52.126;20.664;2023-06-22T08:34:39;100587.22;;;24.37;70.52
55759;BME280;41678;52.126;20.664;2023-06-22T08:40:04;100590.25;;;24.45;70.33
55759;BME280;41678;52.126;20.664;2023-06-22T08:45:28;100590.72;;;24.52;69.61
55759;BME280;41678;52.126;20.664;2023-06-22T08:50:47;100585.81;;;24.58;69.61
55759;BME280;41678;52.126;20.664;2023-06-22T08:56:06;100598.53;;;24.69;69.36
55759;BME280;41678;52.126;20.664;2023-06-22T09:01:26;100600.09;;;24.73;68.54
55759;BME280;41678;52.126;20.664;2023-06-22T09:06:46;100602.41;;;24.80;68.43
55759;BME280;41678;52.126;20.664;2023-06-22T09:12:05;100597.56;;;24.85;67.52
55759;BME280;41678;52.126;20.664;2023-06-22T09:17:25;100601.22;;;24.84;65.59
55759;BME280;41678;52.126;20.664;2023-06-22T09:22:45;100600.81;;;24.90;65.36
55759;BME280;41678;52.126;20.664;2023-06-22T09:28:05;100599.09;;;24.89;64.63
55759;BME280;41678;52.126;20.664;2023-06-22T09:33:25;100588.13;;;24.92;64.52
55759;BME280;41678;52.126;20.664;2023-06-22T09:38:45;100600.31;;;24.98;63.77
55759;BME280;41678;52.126;20.664;2023-06-22T09:44:05;100595.47;;;25.03;63.58
55759;BME280;41678;52.126;20.664;2023-06-22T09:49:24;100609.81;;;25.03;62.54
55759;BME280;41678;52.126;20.664;2023-06-22T09:54:44;100596.78;;;25.10;63.24
55759;BME280;41678;52.126;20.664;2023-06-22T10:00:03;100602.59;;;25.17;63.63
55759;BME280;41678;52.126;20.664;2023-06-22T10:05:25;100596.56;;;25.26;63.61
55759;BME280;41678;52.126;20.664;2023-06-22T10:10:44;100587.13;;;25.34;63.90
55759;BME280;41678;52.126;20.664;2023-06-22T10:16:04;100591.09;;;25.41;63.87
55759;BME280;41678;52.126;20.664;2023-06-22T10:21:24;100594.03;;;25.51;63.40
55759;BME280;41678;52.126;20.664;2023-06-22T10:26:45;100584.13;;;25.51;62.37
55759;BME280;41678;52.126;20.664;2023-06-22T10:32:05;100580.16;;;25.57;62.11
55759;BME280;41678;52.126;20.664;2023-06-22T10:37:25;100585.97;;;25.64;62.32
55759;BME280;41678;52.126;20.664;2023-06-22T10:42:45;100570.31;;;25.69;62.90
55759;BME280;41678;52.126;20.664;2023-06-22T10:48:04;100574.66;;;25.71;61.83
55759;BME280;41678;52.126;20.664;2023-06-22T10:53:24;100570.75;;;25.76;61.07
55759;BME280;41678;52.126;20.664;2023-06-22T10:58:44;100561.47;;;25.80;60.91
55759;BME280;41678;52.126;20.664;2023-06-22T11:04:04;100559.94;;;25.88;60.66
55759;BME280;41678;52.126;20.664;2023-06-22T11:09:24;100566.81;;;25.93;59.75
55759;BME280;41678;52.126;20.664;2023-06-22T11:14:44;100560.59;;;25.92;58.73
55759;BME280;41678;52.126;20.664;2023-06-22T11:20:03;100554.00;;;25.96;58.86
55759;BME280;41678;52.126;20.664;2023-06-22T11:25:30;100554.41;;;26.03;58.52
55759;BME280;41678;52.126;20.664;2023-06-22T11:30:49;100550.63;;;26.06;59.63
55759;BME280;41678;52.126;20.664;2023-06-22T11:36:09;100561.72;;;26.14;59.26
55759;BME280;41678;52.126;20.664;2023-06-22T11:41:28;100557.09;;;26.16;59.10
55759;BME280;41678;52.126;20.664;2023-06-22T11:46:48;100559.47;;;26.21;59.04
55759;BME280;41678;52.126;20.664;2023-06-22T11:52:08;100565.41;;;26.26;58.30
55759;BME280;41678;52.126;20.664;2023-06-22T11:57:28;100555.34;;;26.28;59.13
55759;BME280;41678;52.126;20.664;2023-06-22T12:02:47;100553.41;;;26.30;57.92
55759;BME280;41678;52.126;20.664;2023-06-22T12:08:07;100534.59;;;26.28;58.42
55759;BME280;41678;52.126;20.664;2023-06-22T12:13:26;100524.78;;;26.27;58.61
55759;BME280;41678;52.126;20.664;2023-06-22T12:18:46;100527.16;;;26.32;58.22
55759;BME280;41678;52.126;20.664;2023-06-22T12:24:06;100527.25;;;26.30;58.22
55759;BME280;41678;52.126;20.664;2023-06-22T12:29:26;100527.16;;;26.32;57.27
55759;BME280;41678;52.126;20.664;2023-06-22T12:34:45;100518.81;;;26.35;58.32
55759;BME280;41678;52.126;20.664;2023-06-22T12:40:06;100516.25;;;26.34;58.08
55759;BME280;41678;52.126;20.664;2023-06-22T12:45:25;100524.97;;;26.37;56.92
55759;BME280;41678;52.126;20.664;2023-06-22T12:50:48;100532.31;;;26.35;58.01
55759;BME280;41678;52.126;20.664;2023-06-22T12:56:07;100528.63;;;26.36;56.78
55759;BME280;41678;52.126;20.664;2023-06-22T13:01:27;100527.66;;;26.37;56.44
55759;BME280;41678;52.126;20.664;2023-06-22T13:06:48;100532.94;;;26.39;55.79
55759;BME280;41678;52.126;20.664;2023-06-22T13:12:08;100524.84;;;26.39;55.58
55759;BME280;41678;52.126;20.664;2023-06-22T13:17:27;100518.47;;;26.40;55.49
55759;BME280;41678;52.126;20.664;2023-06-22T13:22:47;100522.06;;;26.40;55.52
55759;BME280;41678;52.126;20.664;2023-06-22T13:28:06;100518.38;;;26.41;55.79
55759;BME280;41678;52.126;20.664;2023-06-22T13:33:26;100518.13;;;26.44;56.19
55759;BME280;41678;52.126;20.664;2023-06-22T13:38:46;100517.81;;;26.49;56.08
55759;BME280;41678;52.126;20.664;2023-06-22T13:44:06;100513.13;;;26.51;55.78
55759;BME280;41678;52.126;20.664;2023-06-22T13:49:26;100508.38;;;26.55;55.08
55759;BME280;41678;52.126;20.664;2023-06-22T13:54:46;100510.31;;;26.53;55.76
55759;BME280;41678;52.126;20.664;2023-06-22T14:00:06;100510.09;;;26.56;55.42
55759;BME280;41678;52.126;20.664;2023-06-22T14:05:31;100510.31;;;26.53;54.59
55759;BME280;41678;52.126;20.664;2023-06-22T14:10:50;100519.38;;;26.52;54.98
55759;BME280;41678;52.126;20.664;2023-06-22T14:16:10;100512.25;;;26.51;55.27
55759;BME280;41678;52.126;20.664;2023-06-22T14:21:30;100515.72;;;26.53;55.23
55759;BME280;41678;52.126;20.664;2023-06-22T14:26:50;100505.78;;;26.53;55.63
55759;BME280;41678;52.126;20.664;2023-06-22T14:32:09;100507.03;;;26.61;54.71
55759;BME280;41678;52.126;20.664;2023-06-22T14:37:29;100502.97;;;26.55;54.31
55759;BME280;41678;52.126;20.664;2023-06-22T14:42:49;100504.91;;;26.53;55.31
55759;BME280;41678;52.126;20.664;2023-06-22T14:48:08;100502.09;;;26.54;55.98
55759;BME280;41678;52.126;20.664;2023-06-22T14:53:28;100493.03;;;26.55;55.31
55759;BME280;41678;52.126;20.664;2023-06-22T14:58:47;100492.03;;;26.56;55.18
55759;BME280;41678;52.126;20.664;2023-06-22T15:04:07;100486.78;;;26.55;55.27
55759;BME280;41678;52.126;20.664;2023-06-22T15:09:27;100473.38;;;26.53;54.91
55759;BME280;41678;52.126;20.664;2023-06-22T15:14:46;100482.47;;;26.52;55.36
55759;BME280;41678;52.126;20.664;2023-06-22T15:20:06;100476.19;;;26.52;54.39
55759;BME280;41678;52.126;20.664;2023-06-22T15:25:26;100480.84;;;26.50;54.34
55759;BME280;41678;52.126;20.664;2023-06-22T15:30:45;100480.13;;;26.48;55.15
55759;BME280;41678;52.126;20.664;2023-06-22T15:36:04;100478.38;;;26.47;55.04
55759;BME280;41678;52.126;20.664;2023-06-22T15:41:26;100478.38;;;26.47;55.22
55759;BME280;41678;52.126;20.664;2023-06-22T15:46:47;100484.03;;;26.43;55.73
55759;BME280;41678;52.126;20.664;2023-06-22T15:52:08;100483.28;;;26.41;55.75
55759;BME280;41678;52.126;20.664;2023-06-22T15:57:28;100487.13;;;26.50;54.07
55759;BME280;41678;52.126;20.664;2023-06-22T16:02:48;100479.72;;;26.41;54.97
55759;BME280;41678;52.126;20.664;2023-06-22T16:08:11;100477.25;;;26.38;55.88
55759;BME280;41678;52.126;20.664;2023-06-22T16:13:31;100488.03;;;26.38;55.83
55759;BME280;41678;52.126;20.664;2023-06-22T16:18:51;100479.44;;;26.33;56.13
55759;BME280;41678;52.126;20.664;2023-06-22T16:24:10;100478.66;;;26.30;56.17
55759;BME280;41678;52.126;20.664;2023-06-22T16:29:30;100482.50;;;26.28;56.80
55759;BME280;41678;52.126;20.664;2023-06-22T16:34:49;100472.66;;;26.27;56.48
55759;BME280;41678;52.126;20.664;2023-06-22T16:40:10;100472.78;;;26.25;55.98
55759;BME280;41678;52.126;20.664;2023-06-22T16:45:29;100463.19;;;26.21;56.19
55759;BME280;41678;52.126;20.664;2023-06-22T16:50:52;100465.66;;;26.24;56.01
55759;BME280;41678;52.126;20.664;2023-06-22T16:56:45;100468.91;;;26.16;55.77
55759;BME280;41678;52.126;20.664;2023-06-22T17:02:15;100465.56;;;26.13;55.75
55759;BME280;41678;52.126;20.664;2023-06-22T17:07:37;100458.16;;;26.03;55.40
55759;BME280;41678;52.126;20.664;2023-06-22T17:12:59;100452.22;;;25.98;56.31
55759;BME280;41678;52.126;20.664;2023-06-22T17:18:19;100458.94;;;25.93;56.64
55759;BME280;41678;52.126;20.664;2023-06-22T17:23:39;100442.38;;;25.86;56.72
55759;BME280;41678;52.126;20.664;2023-06-22T17:29:00;100432.34;;;25.75;57.21
55759;BME280;41678;52.126;20.664;2023-06-22T17:34:26;100438.97;;;25.71;57.25
55759;BME280;41678;52.126;20.664;2023-06-22T17:39:52;100443.09;;;25.64;57.68
55759;BME280;41678;52.126;20.664;2023-06-22T17:45:22;100434.69;;;25.55;57.51
55759;BME280;41678;52.126;20.664;2023-06-22T17:50:42;100429.81;;;25.48;57.83
55759;BME280;41678;52.126;20.664;2023-06-22T17:56:02;100418.63;;;25.41;58.38
55759;BME280;41678;52.126;20.664;2023-06-22T18:01:28;100424.34;;;25.36;58.64
55759;BME280;41678;52.126;20.664;2023-06-22T18:06:49;100418.53;;;25.29;59.03
55759;BME280;41678;52.126;20.664;2023-06-22T18:12:09;100416.38;;;25.22;58.91
55759;BME280;41678;52.126;20.664;2023-06-22T18:17:30;100421.34;;;25.15;59.32
55759;BME280;41678;52.126;20.664;2023-06-22T18:22:50;100423.97;;;25.03;59.04
55759;BME280;41678;52.126;20.664;2023-06-22T18:28:09;100412.09;;;24.93;59.03
55759;BME280;41678;52.126;20.664;2023-06-22T18:33:31;100401.13;;;24.83;59.25
55759;BME280;41678;52.126;20.664;2023-06-22T18:38:53;100402.59;;;24.74;59.57
55759;BME280;41678;52.126;20.664;2023-06-22T18:44:20;100407.63;;;24.66;59.66
55759;BME280;41678;52.126;20.664;2023-06-22T18:55:03;100410.28;;;24.40;59.71
55759;BME280;41678;52.126;20.664;2023-06-22T19:00:30;100411.13;;;24.28;59.86
55759;BME280;41678;52.126;20.664;2023-06-22T19:05:49;100424.44;;;24.16;59.62
55759;BME280;41678;52.126;20.664;2023-06-22T19:11:12;100417.94;;;24.06;60.13
55759;BME280;41678;52.126;20.664;2023-06-22T19:16:32;100417.84;;;23.93;60.43
55759;BME280;41678;52.126;20.664;2023-06-22T19:21:58;100424.91;;;23.81;60.25
55759;BME280;41678;52.126;20.664;2023-06-22T19:27:19;100421.28;;;23.68;60.16
55759;BME280;41678;52.126;20.664;2023-06-22T19:32:39;100431.94;;;23.55;60.11
55759;BME280;41678;52.126;20.664;2023-06-22T19:37:59;100420.25;;;23.41;60.43
55759;BME280;41678;52.126;20.664;2023-06-22T19:43:19;100419.22;;;23.29;60.38
55759;BME280;41678;52.126;20.664;2023-06-22T19:48:39;100404.72;;;23.17;60.36
55759;BME280;41678;52.126;20.664;2023-06-22T19:54:09;100402.72;;;23.06;60.69
55759;BME280;41678;52.126;20.664;2023-06-22T19:59:31;100409.69;;;22.95;60.51
55759;BME280;41678;52.126;20.664;2023-06-22T20:08:48;100411.09;;;22.71;61.02
55759;BME280;41678;52.126;20.664;2023-06-22T20:14:08;100396.19;;;22.51;61.12
55759;BME280;41678;52.126;20.664;2023-06-22T20:19:35;100385.50;;;22.35;61.32
55759;BME280;41678;52.126;20.664;2023-06-22T20:24:56;100384.81;;;22.31;61.00
55759;BME280;41678;52.126;20.664;2023-06-22T20:30:20;100375.00;;;22.16;61.37
55759;BME280;41678;52.126;20.664;2023-06-22T20:35:43;100376.47;;;22.05;61.30
55759;BME280;41678;52.126;20.664;2023-06-22T20:41:03;100380.56;;;21.97;61.28
55759;BME280;41678;52.126;20.664;2023-06-22T20:46:26;100357.94;;;21.86;61.28
55759;BME280;41678;52.126;20.664;2023-06-22T20:51:50;100365.72;;;21.75;61.69
55759;BME280;41678;52.126;20.664;2023-06-22T20:57:10;100352.03;;;21.63;61.41
55759;BME280;41678;52.126;20.664;2023-06-22T21:02:30;100354.91;;;21.60;61.72
55759;BME280;41678;52.126;20.664;2023-06-22T21:07:50;100356.28;;;21.51;61.79
55759;BME280;41678;52.126;20.664;2023-06-22T21:13:10;100354.47;;;21.36;61.96
55759;BME280;41678;52.126;20.664;2023-06-22T21:18:31;100346.00;;;21.28;61.69
55759;BME280;41678;52.126;20.664;2023-06-22T21:23:51;100337.53;;;21.19;62.20
55759;BME280;41678;52.126;20.664;2023-06-22T21:29:11;100339.75;;;21.11;61.99
55759;BME280;41678;52.126;20.664;2023-06-22T21:34:31;100339.41;;;21.01;62.04
55759;BME280;41678;52.126;20.664;2023-06-22T21:39:53;100333.69;;;20.91;62.54
55759;BME280;41678;52.126;20.664;2023-06-22T21:45:14;100341.97;;;20.87;62.45
55759;BME280;41678;52.126;20.664;2023-06-22T21:50:34;100360.09;;;20.82;62.68
55759;BME280;41678;52.126;20.664;2023-06-22T21:55:54;100369.69;;;20.68;62.49
55759;BME280;41678;52.126;20.664;2023-06-22T22:01:14;100375.66;;;20.56;62.72
55759;BME280;41678;52.126;20.664;2023-06-22T22:06:34;100365.28;;;20.49;62.56
55759;BME280;41678;52.126;20.664;2023-06-22T22:11:54;100355.78;;;20.44;62.56
55759;BME280;41678;52.126;20.664;2023-06-22T22:17:15;100355.13;;;20.38;62.82
55759;BME280;41678;52.126;20.664;2023-06-22T22:22:35;100354.75;;;20.29;62.83
55759;BME280;41678;52.126;20.664;2023-06-22T22:27:56;100379.03;;;20.24;62.68
55759;BME280;41678;52.126;20.664;2023-06-22T22:33:15;100375.41;;;20.07;63.35
55759;BME280;41678;52.126;20.664;2023-06-22T22:38:36;100373.00;;;20.03;63.19
55759;BME280;41678;52.126;20.664;2023-06-22T22:43:57;100371.53;;;19.95;64.12
55759;BME280;41678;52.126;20.664;2023-06-22T22:49:17;100367.34;;;19.90;63.36
55759;BME280;41678;52.126;20.664;2023-06-22T22:54:37;100355.31;;;19.81;63.56
55759;BME280;41678;52.126;20.664;2023-06-22T23:00:02;100351.91;;;19.77;63.26
55759;BME280;41678;52.126;20.664;2023-06-22T23:05:23;100339.03;;;19.68;63.51
55759;BME280;41678;52.126;20.664;2023-06-22T23:10:44;100358.81;;;19.64;63.96
55759;BME280;41678;52.126;20.664;2023-06-22T23:16:04;100336.22;;;19.52;63.76
55759;BME280;41678;52.126;20.664;2023-06-22T23:21:25;100325.06;;;19.44;63.87
55759;BME280;41678;52.126;20.664;2023-06-22T23:26:45;100322.50;;;19.40;63.78
55759;BME280;41678;52.126;20.664;2023-06-22T23:32:07;100308.84;;;19.29;64.18
55759;BME280;41678;52.126;20.664;2023-06-22T23:37:27;100294.59;;;19.29;63.88
55759;BME280;41678;52.126;20.664;2023-06-22T23:42:48;100294.81;;;19.24;63.86
55759;BME280;41678;52.126;20.664;2023-06-22T23:48:08;100282.09;;;19.11;64.05
55759;BME280;41678;52.126;20.664;2023-06-22T23:53:29;100297.16;;;19.13;64.39
55759;BME280;41678;52.126;20.664;2023-06-22T23:58:49;100291.63;;;18.96;64.69
